sensor_id;sensor_type;location;lat;lon;timestamp;P1;durP1;ratioP1;P2;durP2;ratioP2
40871;SDS011;26591;43.264;26.940;2023-06-26T00:00:31;14.63;;;6.82;;
40871;SDS011;26591;43.264;26.940;2023-06-26T00:03:03;9.77;;;6.10;;
40871;SDS011;26591;43.264;26.940;2023-06-26T00:05:29;12.88;;;7.45;;
40871;SDS011;26591;43.264;26.940;2023-06-26T00:07:55;10.93;;;5.93;;
40871;SDS011;26591;43.264;26.940;2023-06-26T00:10:22;9.48;;;7.60;;
40871;SDS011;26591;43.264;26.940;2023-06-26T00:12:47;10.93;;;8.40;;
40871;SDS011;26591;43.264;26.940;2023-06-26T00:15:12;12.20;;;7.93;;
40871;SDS011;26591;43.264;26.940;2023-06-26T00:17:38;12.45;;;7.95;;
40871;SDS011;26591;43.264;26.940;2023-06-26T00:20:04;13.68;;;7.82;;
40871;SDS011;26591;43.264;26.940;2023-06-26T00:22:33;16.55;;;8.95;;
40871;SDS011;26591;43.264;26.940;2023-06-26T00:24:59;9.23;;;7.70;;
40871;SDS011;26591;43.264;26.940;2023-06-26T00:27:24;12.25;;;8.10;;
40871;SDS011;26591;43.264;26.940;2023-06-26T00:29:50;12.13;;;8.07;;
40871;SDS011;26591;43.264;26.940;2023-06-26T00:32:17;12.25;;;7.55;;
40871;SDS011;26591;43.264;26.940;2023-06-26T00:34:43;12.48;;;8.25;;
40871;SDS011;26591;43.264;26.940;2023-06-26T00:37:08;12.02;;;6.80;;
40871;SDS011;26591;43.264;26.940;2023-06-26T00:39:34;9.10;;;7.57;;
40871;SDS011;26591;43.264;26.940;2023-06-26T00:42:00;9.48;;;7.57;;
40871;SDS011;26591;43.264;26.940;2023-06-26T00:44:25;9.25;;;6.95;;
40871;SDS011;26591;43.264;26.940;2023-06-26T00:46:51;14.00;;;7.57;;
40871;SDS011;26591;43.264;26.940;2023-06-26T00:49:29;11.23;;;6.57;;
40871;SDS011;26591;43.264;26.940;2023-06-26T00:51:54;7.90;;;6.43;;
40871;SDS011;26591;43.264;26.940;2023-06-26T00:54:21;9.48;;;6.50;;
40871;SDS011;26591;43.264;26.940;2023-06-26T00:56:47;8.40;;;6.35;;
40871;SDS011;26591;43.264;26.940;2023-06-26T00:59:13;9.93;;;7.20;;
40871;SDS011;26591;43.264;26.940;2023-06-26T01:01:39;12.68;;;7.22;;
40871;SDS011;26591;43.264;26.940;2023-06-26T01:04:05;14.05;;;7.32;;
40871;SDS011;26591;43.264;26.940;2023-06-26T01:06:37;12.32;;;7.63;;
40871;SDS011;26591;43.264;26.940;2023-06-26T01:09:03;10.95;;;7.75;;
40871;SDS011;26591;43.264;26.940;2023-06-26T01:11:28;14.82;;;8.35;;
40871;SDS011;26591;43.264;26.940;2023-06-26T01:13:54;11.23;;;7.80;;
40871;SDS011;26591;43.264;26.940;2023-06-26T01:16:23;14.90;;;7.85;;
40871;SDS011;26591;43.264;26.940;2023-06-26T01:18:49;10.32;;;8.82;;
40871;SDS011;26591;43.264;26.940;2023-06-26T01:21:15;11.98;;;8.05;;
40871;SDS011;26591;43.264;26.940;2023-06-26T01:26:50;12.20;;;8.07;;
40871;SDS011;26591;43.264;26.940;2023-06-26T01:29:16;13.88;;;8.75;;
40871;SDS011;26591;43.264;26.940;2023-06-26T01:31:43;10.85;;;8.75;;
40871;SDS011;26591;43.264;26.940;2023-06-26T01:34:12;17.05;;;8.90;;
40871;SDS011;26591;43.264;26.940;2023-06-26T01:36:40;12.45;;;9.00;;
40871;SDS011;26591;43.264;26.940;2023-06-26T01:39:05;13.68;;;8.88;;
40871;SDS011;26591;43.264;26.940;2023-06-26T01:41:31;13.45;;;9.63;;
40871;SDS011;26591;43.264;26.940;2023-06-26T01:58:02;18.67;;;12.32;;
40871;SDS011;26591;43.264;26.940;2023-06-26T02:00:28;18.65;;;12.93;;
40871;SDS011;26591;43.264;26.940;2023-06-26T02:02:54;18.25;;;11.98;;
40871;SDS011;26591;43.264;26.940;2023-06-26T02:05:20;17.23;;;12.93;;
40871;SDS011;26591;43.264;26.940;2023-06-26T02:07:45;17.60;;;13.05;;
40871;SDS011;26591;43.264;26.940;2023-06-26T02:10:11;19.77;;;12.80;;
40871;SDS011;26591;43.264;26.940;2023-06-26T02:12:37;14.35;;;11.98;;
40871;SDS011;26591;43.264;26.940;2023-06-26T02:15:03;14.85;;;12.25;;
40871;SDS011;26591;43.264;26.940;2023-06-26T02:17:29;18.40;;;14.02;;
40871;SDS011;26591;43.264;26.940;2023-06-26T02:19:55;18.50;;;15.23;;
40871;SDS011;26591;43.264;26.940;2023-06-26T02:22:20;19.73;;;14.48;;
40871;SDS011;26591;43.264;26.940;2023-06-26T02:24:49;16.80;;;13.60;;
40871;SDS011;26591;43.264;26.940;2023-06-26T02:27:14;21.73;;;14.77;;
40871;SDS011;26591;43.264;26.940;2023-06-26T02:29:40;22.48;;;15.32;;
40871;SDS011;26591;43.264;26.940;2023-06-26T02:32:07;19.63;;;13.98;;
40871;SDS011;26591;43.264;26.940;2023-06-26T02:34:34;16.70;;;13.65;;
40871;SDS011;26591;43.264;26.940;2023-06-26T02:36:59;22.92;;;14.88;;
40871;SDS011;26591;43.264;26.940;2023-06-26T02:39:28;20.38;;;13.90;;
40871;SDS011;26591;43.264;26.940;2023-06-26T02:41:54;19.55;;;14.73;;
40871;SDS011;26591;43.264;26.940;2023-06-26T02:44:19;23.00;;;15.15;;
40871;SDS011;26591;43.264;26.940;2023-06-26T02:46:46;17.02;;;13.68;;
40871;SDS011;26591;43.264;26.940;2023-06-26T02:49:11;19.50;;;13.57;;
40871;SDS011;26591;43.264;26.940;2023-06-26T02:51:38;25.40;;;14.77;;
40871;SDS011;26591;43.264;26.940;2023-06-26T02:54:04;21.65;;;15.00;;
40871;SDS011;26591;43.264;26.940;2023-06-26T02:56:29;24.20;;;14.05;;
40871;SDS011;26591;43.264;26.940;2023-06-26T02:58:55;19.83;;;13.63;;
40871;SDS011;26591;43.264;26.940;2023-06-26T03:01:21;24.27;;;13.48;;
40871;SDS011;26591;43.264;26.940;2023-06-26T03:03:46;20.17;;;14.18;;
40871;SDS011;26591;43.264;26.940;2023-06-26T03:06:12;21.05;;;14.10;;
40871;SDS011;26591;43.264;26.940;2023-06-26T03:08:39;17.58;;;13.25;;
40871;SDS011;26591;43.264;26.940;2023-06-26T03:11:05;18.83;;;13.10;;
40871;SDS011;26591;43.264;26.940;2023-06-26T03:13:32;22.33;;;14.13;;
40871;SDS011;26591;43.264;26.940;2023-06-26T03:16:01;20.20;;;13.55;;
40871;SDS011;26591;43.264;26.940;2023-06-26T03:18:27;20.42;;;14.40;;
40871;SDS011;26591;43.264;26.940;2023-06-26T03:20:53;20.35;;;15.32;;
40871;SDS011;26591;43.264;26.940;2023-06-26T03:23:20;22.85;;;15.00;;
40871;SDS011;26591;43.264;26.940;2023-06-26T03:25:46;27.55;;;17.50;;
40871;SDS011;26591;43.264;26.940;2023-06-26T03:28:12;25.67;;;17.52;;
40871;SDS011;26591;43.264;26.940;2023-06-26T03:30:43;19.35;;;17.33;;
40871;SDS011;26591;43.264;26.940;2023-06-26T03:33:08;28.58;;;18.60;;
40871;SDS011;26591;43.264;26.940;2023-06-26T03:35:34;18.42;;;13.52;;
40871;SDS011;26591;43.264;26.940;2023-06-26T03:37:59;17.23;;;13.40;;
40871;SDS011;26591;43.264;26.940;2023-06-26T03:40:26;16.38;;;12.15;;
40871;SDS011;26591;43.264;26.940;2023-06-26T03:42:52;14.75;;;10.30;;
40871;SDS011;26591;43.264;26.940;2023-06-26T03:45:17;14.55;;;9.77;;
40871;SDS011;26591;43.264;26.940;2023-06-26T03:47:44;11.35;;;8.98;;
40871;SDS011;26591;43.264;26.940;2023-06-26T03:50:14;11.70;;;8.85;;
40871;SDS011;26591;43.264;26.940;2023-06-26T03:52:40;11.60;;;9.23;;
40871;SDS011;26591;43.264;26.940;2023-06-26T03:55:06;15.82;;;11.45;;
40871;SDS011;26591;43.264;26.940;2023-06-26T03:57:31;14.15;;;10.50;;
40871;SDS011;26591;43.264;26.940;2023-06-26T03:59:59;15.73;;;12.13;;
40871;SDS011;26591;43.264;26.940;2023-06-26T04:02:25;18.45;;;12.10;;
40871;SDS011;26591;43.264;26.940;2023-06-26T04:04:50;18.83;;;13.93;;
40871;SDS011;26591;43.264;26.940;2023-06-26T04:07:17;16.52;;;13.88;;
40871;SDS011;26591;43.264;26.940;2023-06-26T04:09:44;22.00;;;13.85;;
40871;SDS011;26591;43.264;26.940;2023-06-26T04:12:09;23.23;;;16.15;;
40871;SDS011;26591;43.264;26.940;2023-06-26T04:14:35;22.08;;;16.20;;
40871;SDS011;26591;43.264;26.940;2023-06-26T04:17:00;24.52;;;16.27;;
40871;SDS011;26591;43.264;26.940;2023-06-26T04:19:28;23.98;;;17.90;;
40871;SDS011;26591;43.264;26.940;2023-06-26T04:21:54;21.20;;;15.48;;
40871;SDS011;26591;43.264;26.940;2023-06-26T04:24:20;21.63;;;16.20;;
40871;SDS011;26591;43.264;26.940;2023-06-26T04:26:45;20.30;;;15.73;;
40871;SDS011;26591;43.264;26.940;2023-06-26T04:29:11;23.63;;;16.00;;
40871;SDS011;26591;43.264;26.940;2023-06-26T04:31:36;21.20;;;13.40;;
40871;SDS011;26591;43.264;26.940;2023-06-26T04:34:02;20.60;;;13.43;;
40871;SDS011;26591;43.264;26.940;2023-06-26T04:36:27;17.58;;;12.48;;
40871;SDS011;26591;43.264;26.940;2023-06-26T04:38:56;21.98;;;12.75;;
40871;SDS011;26591;43.264;26.940;2023-06-26T04:41:23;16.85;;;11.90;;
40871;SDS011;26591;43.264;26.940;2023-06-26T04:43:49;19.05;;;11.45;;
40871;SDS011;26591;43.264;26.940;2023-06-26T04:46:15;16.20;;;11.00;;
40871;SDS011;26591;43.264;26.940;2023-06-26T04:48:40;24.23;;;11.55;;
40871;SDS011;26591;43.264;26.940;2023-06-26T04:51:06;18.17;;;10.85;;
40871;SDS011;26591;43.264;26.940;2023-06-26T04:53:31;17.85;;;10.90;;
40871;SDS011;26591;43.264;26.940;2023-06-26T04:55:57;18.80;;;10.80;;
40871;SDS011;26591;43.264;26.940;2023-06-26T04:58:25;21.55;;;10.57;;
40871;SDS011;26591;43.264;26.940;2023-06-26T05:00:51;18.85;;;11.40;;
40871;SDS011;26591;43.264;26.940;2023-06-26T05:03:17;20.98;;;9.55;;
40871;SDS011;26591;43.264;26.940;2023-06-26T05:05:43;15.75;;;9.38;;
40871;SDS011;26591;43.264;26.940;2023-06-26T05:08:15;14.40;;;8.93;;
40871;SDS011;26591;43.264;26.940;2023-06-26T05:10:46;16.15;;;9.80;;
40871;SDS011;26591;43.264;26.940;2023-06-26T05:13:12;11.45;;;8.35;;
40871;SDS011;26591;43.264;26.940;2023-06-26T05:15:43;14.95;;;8.40;;
40871;SDS011;26591;43.264;26.940;2023-06-26T05:18:09;14.95;;;7.88;;
40871;SDS011;26591;43.264;26.940;2023-06-26T05:20:35;14.73;;;8.38;;
40871;SDS011;26591;43.264;26.940;2023-06-26T05:23:02;12.07;;;7.93;;
40871;SDS011;26591;43.264;26.940;2023-06-26T05:25:28;14.75;;;7.88;;
40871;SDS011;26591;43.264;26.940;2023-06-26T05:27:55;15.30;;;7.30;;
40871;SDS011;26591;43.264;26.940;2023-06-26T05:30:22;13.82;;;7.30;;
40871;SDS011;26591;43.264;26.940;2023-06-26T05:32:50;11.27;;;6.68;;
40871;SDS011;26591;43.264;26.940;2023-06-26T05:35:16;15.05;;;6.78;;
40871;SDS011;26591;43.264;26.940;2023-06-26T05:37:43;11.10;;;6.65;;
40871;SDS011;26591;43.264;26.940;2023-06-26T05:40:09;9.43;;;6.40;;
40871;SDS011;26591;43.264;26.940;2023-06-26T05:42:35;14.65;;;6.78;;
40871;SDS011;26591;43.264;26.940;2023-06-26T05:45:01;13.90;;;6.18;;
40871;SDS011;26591;43.264;26.940;2023-06-26T05:47:26;12.52;;;6.70;;
40871;SDS011;26591;43.264;26.940;2023-06-26T05:49:52;8.98;;;6.40;;
40871;SDS011;26591;43.264;26.940;2023-06-26T05:55:05;11.32;;;6.43;;
40871;SDS011;26591;43.264;26.940;2023-06-26T05:57:31;7.88;;;6.07;;
40871;SDS011;26591;43.264;26.940;2023-06-26T05:59:57;12.80;;;6.20;;
40871;SDS011;26591;43.264;26.940;2023-06-26T06:02:23;10.57;;;5.85;;
40871;SDS011;26591;43.264;26.940;2023-06-26T06:04:48;13.15;;;6.53;;
40871;SDS011;26591;43.264;26.940;2023-06-26T06:07:14;11.02;;;6.38;;
40871;SDS011;26591;43.264;26.940;2023-06-26T06:09:40;10.88;;;6.50;;
40871;SDS011;26591;43.264;26.940;2023-06-26T06:12:06;6.85;;;5.60;;
40871;SDS011;26591;43.264;26.940;2023-06-26T06:14:33;9.00;;;5.65;;
40871;SDS011;26591;43.264;26.940;2023-06-26T06:16:59;13.98;;;6.05;;
40871;SDS011;26591;43.264;26.940;2023-06-26T06:19:24;13.27;;;6.53;;
40871;SDS011;26591;43.264;26.940;2023-06-26T06:21:50;9.43;;;6.60;;
40871;SDS011;26591;43.264;26.940;2023-06-26T06:24:16;12.63;;;6.97;;
40871;SDS011;26591;43.264;26.940;2023-06-26T06:26:42;8.82;;;5.70;;
40871;SDS011;26591;43.264;26.940;2023-06-26T06:29:08;10.32;;;6.00;;
40871;SDS011;26591;43.264;26.940;2023-06-26T06:31:33;13.10;;;6.60;;
40871;SDS011;26591;43.264;26.940;2023-06-26T06:33:59;11.57;;;6.75;;
40871;SDS011;26591;43.264;26.940;2023-06-26T06:36:24;9.30;;;6.72;;
40871;SDS011;26591;43.264;26.940;2023-06-26T06:38:50;9.27;;;6.15;;
40871;SDS011;26591;43.264;26.940;2023-06-26T06:41:15;10.10;;;5.57;;
40871;SDS011;26591;43.264;26.940;2023-06-26T06:43:41;21.95;;;8.68;;
40871;SDS011;26591;43.264;26.940;2023-06-26T06:46:07;80.93;;;28.45;;
40871;SDS011;26591;43.264;26.940;2023-06-26T06:48:34;19.95;;;9.07;;
40871;SDS011;26591;43.264;26.940;2023-06-26T06:50:59;33.33;;;12.93;;
40871;SDS011;26591;43.264;26.940;2023-06-26T06:53:25;30.80;;;13.52;;
40871;SDS011;26591;43.264;26.940;2023-06-26T06:55:53;12.65;;;6.88;;
40871;SDS011;26591;43.264;26.940;2023-06-26T06:58:19;17.10;;;7.72;;
40871;SDS011;26591;43.264;26.940;2023-06-26T07:00:50;21.30;;;10.68;;
40871;SDS011;26591;43.264;26.940;2023-06-26T07:03:17;10.07;;;6.00;;
40871;SDS011;26591;43.264;26.940;2023-06-26T07:05:43;13.98;;;6.93;;
40871;SDS011;26591;43.264;26.940;2023-06-26T07:08:09;15.57;;;5.88;;
40871;SDS011;26591;43.264;26.940;2023-06-26T07:10:35;16.02;;;6.85;;
40871;SDS011;26591;43.264;26.940;2023-06-26T07:13:00;12.38;;;6.07;;
40871;SDS011;26591;43.264;26.940;2023-06-26T07:15:27;12.00;;;6.05;;
40871;SDS011;26591;43.264;26.940;2023-06-26T07:17:52;11.05;;;6.03;;
40871;SDS011;26591;43.264;26.940;2023-06-26T07:20:18;12.05;;;6.80;;
40871;SDS011;26591;43.264;26.940;2023-06-26T07:22:43;13.25;;;6.45;;
40871;SDS011;26591;43.264;26.940;2023-06-26T07:25:13;13.03;;;6.23;;
40871;SDS011;26591;43.264;26.940;2023-06-26T07:27:38;11.60;;;5.55;;
40871;SDS011;26591;43.264;26.940;2023-06-26T07:30:05;20.73;;;6.60;;
40871;SDS011;26591;43.264;26.940;2023-06-26T07:32:34;10.73;;;6.03;;
40871;SDS011;26591;43.264;26.940;2023-06-26T07:34:59;6.25;;;5.13;;
40871;SDS011;26591;43.264;26.940;2023-06-26T07:37:25;12.98;;;5.78;;
40871;SDS011;26591;43.264;26.940;2023-06-26T07:39:50;10.40;;;5.53;;
40871;SDS011;26591;43.264;26.940;2023-06-26T07:42:16;10.77;;;5.13;;
40871;SDS011;26591;43.264;26.940;2023-06-26T07:44:42;13.20;;;6.05;;
40871;SDS011;26591;43.264;26.940;2023-06-26T07:47:08;10.25;;;5.07;;
40871;SDS011;26591;43.264;26.940;2023-06-26T07:49:33;14.18;;;5.90;;
40871;SDS011;26591;43.264;26.940;2023-06-26T07:51:59;8.15;;;5.45;;
40871;SDS011;26591;43.264;26.940;2023-06-26T07:54:24;11.80;;;5.15;;
40871;SDS011;26591;43.264;26.940;2023-06-26T07:59:20;9.68;;;4.78;;
40871;SDS011;26591;43.264;26.940;2023-06-26T08:01:47;11.65;;;4.70;;
40871;SDS011;26591;43.264;26.940;2023-06-26T08:04:13;9.95;;;5.20;;
40871;SDS011;26591;43.264;26.940;2023-06-26T08:06:38;7.78;;;5.10;;
40871;SDS011;26591;43.264;26.940;2023-06-26T08:09:05;8.80;;;5.32;;
40871;SDS011;26591;43.264;26.940;2023-06-26T08:11:32;9.68;;;5.50;;
40871;SDS011;26591;43.264;26.940;2023-06-26T08:14:01;17.98;;;6.40;;
40871;SDS011;26591;43.264;26.940;2023-06-26T08:16:26;6.18;;;4.50;;
40871;SDS011;26591;43.264;26.940;2023-06-26T08:18:52;10.07;;;4.97;;
40871;SDS011;26591;43.264;26.940;2023-06-26T08:21:17;10.30;;;5.00;;
40871;SDS011;26591;43.264;26.940;2023-06-26T08:23:43;17.55;;;5.28;;
40871;SDS011;26591;43.264;26.940;2023-06-26T08:26:08;8.70;;;4.90;;
40871;SDS011;26591;43.264;26.940;2023-06-26T08:28:52;9.77;;;5.18;;
40871;SDS011;26591;43.264;26.940;2023-06-26T08:31:17;24.67;;;5.35;;
40871;SDS011;26591;43.264;26.940;2023-06-26T08:33:43;7.53;;;4.75;;
40871;SDS011;26591;43.264;26.940;2023-06-26T08:36:08;9.77;;;4.82;;
40871;SDS011;26591;43.264;26.940;2023-06-26T08:38:34;10.02;;;5.13;;
40871;SDS011;26591;43.264;26.940;2023-06-26T08:40:59;7.82;;;4.53;;
40871;SDS011;26591;43.264;26.940;2023-06-26T08:43:25;7.60;;;5.10;;
40871;SDS011;26591;43.264;26.940;2023-06-26T08:45:52;14.65;;;4.93;;
40871;SDS011;26591;43.264;26.940;2023-06-26T08:48:18;8.57;;;4.93;;
40871;SDS011;26591;43.264;26.940;2023-06-26T08:50:45;12.20;;;5.00;;
40871;SDS011;26591;43.264;26.940;2023-06-26T08:53:16;7.93;;;4.28;;
40871;SDS011;26591;43.264;26.940;2023-06-26T08:55:48;8.25;;;4.35;;
40871;SDS011;26591;43.264;26.940;2023-06-26T08:58:17;6.45;;;5.03;;
40871;SDS011;26591;43.264;26.940;2023-06-26T09:00:43;13.73;;;4.75;;
40871;SDS011;26591;43.264;26.940;2023-06-26T09:03:08;7.90;;;5.00;;
40871;SDS011;26591;43.264;26.940;2023-06-26T09:05:35;5.88;;;4.55;;
40871;SDS011;26591;43.264;26.940;2023-06-26T09:08:01;11.07;;;4.65;;
40871;SDS011;26591;43.264;26.940;2023-06-26T09:10:27;9.10;;;4.85;;
40871;SDS011;26591;43.264;26.940;2023-06-26T09:12:56;13.15;;;4.93;;
40871;SDS011;26591;43.264;26.940;2023-06-26T09:15:26;9.98;;;4.72;;
40871;SDS011;26591;43.264;26.940;2023-06-26T09:17:56;10.70;;;4.22;;
40871;SDS011;26591;43.264;26.940;2023-06-26T09:20:28;7.38;;;4.20;;
40871;SDS011;26591;43.264;26.940;2023-06-26T09:22:55;13.10;;;5.05;;
40871;SDS011;26591;43.264;26.940;2023-06-26T09:25:21;7.65;;;4.32;;
40871;SDS011;26591;43.264;26.940;2023-06-26T09:27:48;6.40;;;3.55;;
40871;SDS011;26591;43.264;26.940;2023-06-26T09:30:16;8.07;;;4.10;;
40871;SDS011;26591;43.264;26.940;2023-06-26T09:32:43;7.00;;;4.20;;
40871;SDS011;26591;43.264;26.940;2023-06-26T09:35:09;6.97;;;4.35;;
40871;SDS011;26591;43.264;26.940;2023-06-26T09:37:35;7.75;;;4.07;;
40871;SDS011;26591;43.264;26.940;2023-06-26T09:40:08;9.57;;;4.03;;
40871;SDS011;26591;43.264;26.940;2023-06-26T09:42:34;4.40;;;3.40;;
40871;SDS011;26591;43.264;26.940;2023-06-26T09:45:00;7.13;;;4.05;;
40871;SDS011;26591;43.264;26.940;2023-06-26T09:47:26;7.97;;;3.42;;
40871;SDS011;26591;43.264;26.940;2023-06-26T09:49:55;5.25;;;3.63;;
40871;SDS011;26591;43.264;26.940;2023-06-26T09:52:21;5.18;;;3.30;;
40871;SDS011;26591;43.264;26.940;2023-06-26T09:54:50;3.72;;;3.00;;
40871;SDS011;26591;43.264;26.940;2023-06-26T09:57:16;9.02;;;3.00;;
40871;SDS011;26591;43.264;26.940;2023-06-26T09:59:43;6.32;;;3.10;;
40871;SDS011;26591;43.264;26.940;2023-06-26T10:02:10;5.00;;;3.58;;
40871;SDS011;26591;43.264;26.940;2023-06-26T10:04:37;4.47;;;3.90;;
40871;SDS011;26591;43.264;26.940;2023-06-26T10:07:06;10.18;;;3.95;;
40871;SDS011;26591;43.264;26.940;2023-06-26T10:09:35;12.95;;;3.38;;
40871;SDS011;26591;43.264;26.940;2023-06-26T10:14:57;9.77;;;3.78;;
40871;SDS011;26591;43.264;26.940;2023-06-26T10:17:28;6.55;;;3.53;;
40871;SDS011;26591;43.264;26.940;2023-06-26T10:19:58;4.55;;;3.40;;
40871;SDS011;26591;43.264;26.940;2023-06-26T10:22:27;5.15;;;3.25;;
40871;SDS011;26591;43.264;26.940;2023-06-26T10:24:59;5.55;;;3.63;;
40871;SDS011;26591;43.264;26.940;2023-06-26T10:27:27;6.40;;;4.00;;
40871;SDS011;26591;43.264;26.940;2023-06-26T10:30:00;11.50;;;3.78;;
40871;SDS011;26591;43.264;26.940;2023-06-26T10:32:30;6.32;;;3.10;;
40871;SDS011;26591;43.264;26.940;2023-06-26T10:34:57;6.88;;;3.28;;
40871;SDS011;26591;43.264;26.940;2023-06-26T10:37:42;10.75;;;3.35;;
40871;SDS011;26591;43.264;26.940;2023-06-26T10:40:17;11.45;;;3.30;;
40871;SDS011;26591;43.264;26.940;2023-06-26T10:42:46;9.15;;;3.60;;
40871;SDS011;26591;43.264;26.940;2023-06-26T10:45:17;7.18;;;3.65;;
40871;SDS011;26591;43.264;26.940;2023-06-26T10:47:47;5.85;;;3.70;;
40871;SDS011;26591;43.264;26.940;2023-06-26T10:50:20;7.20;;;3.50;;
40871;SDS011;26591;43.264;26.940;2023-06-26T10:53:09;9.68;;;3.83;;
40871;SDS011;26591;43.264;26.940;2023-06-26T10:55:35;6.50;;;3.45;;
40871;SDS011;26591;43.264;26.940;2023-06-26T10:58:01;5.90;;;3.50;;
40871;SDS011;26591;43.264;26.940;2023-06-26T11:00:27;4.80;;;3.17;;
40871;SDS011;26591;43.264;26.940;2023-06-26T11:02:53;4.68;;;3.65;;
40871;SDS011;26591;43.264;26.940;2023-06-26T11:05:26;4.05;;;2.97;;
40871;SDS011;26591;43.264;26.940;2023-06-26T11:08:02;9.00;;;3.53;;
40871;SDS011;26591;43.264;26.940;2023-06-26T11:10:29;10.50;;;3.78;;
40871;SDS011;26591;43.264;26.940;2023-06-26T11:12:54;5.40;;;3.55;;
40871;SDS011;26591;43.264;26.940;2023-06-26T11:15:24;3.83;;;3.13;;
40871;SDS011;26591;43.264;26.940;2023-06-26T11:17:51;4.38;;;3.42;;
40871;SDS011;26591;43.264;26.940;2023-06-26T11:20:18;5.22;;;3.63;;
40871;SDS011;26591;43.264;26.940;2023-06-26T11:22:44;4.90;;;3.13;;
40871;SDS011;26591;43.264;26.940;2023-06-26T11:25:09;6.00;;;3.80;;
40871;SDS011;26591;43.264;26.940;2023-06-26T11:27:39;7.95;;;3.30;;
40871;SDS011;26591;43.264;26.940;2023-06-26T11:30:05;11.65;;;3.30;;
40871;SDS011;26591;43.264;26.940;2023-06-26T11:32:32;10.00;;;3.35;;
40871;SDS011;26591;43.264;26.940;2023-06-26T11:35:00;5.00;;;3.75;;
40871;SDS011;26591;43.264;26.940;2023-06-26T11:37:26;7.57;;;3.40;;
40871;SDS011;26591;43.264;26.940;2023-06-26T11:39:52;5.47;;;3.70;;
40871;SDS011;26591;43.264;26.940;2023-06-26T11:42:20;5.30;;;3.20;;
40871;SDS011;26591;43.264;26.940;2023-06-26T11:44:46;7.90;;;3.35;;
40871;SDS011;26591;43.264;26.940;2023-06-26T11:47:18;6.35;;;3.47;;
40871;SDS011;26591;43.264;26.940;2023-06-26T11:49:45;10.55;;;4.13;;
40871;SDS011;26591;43.264;26.940;2023-06-26T11:52:12;11.02;;;3.95;;
40871;SDS011;26591;43.264;26.940;2023-06-26T11:54:39;7.15;;;3.85;;
40871;SDS011;26591;43.264;26.940;2023-06-26T11:57:13;7.57;;;3.40;;
40871;SDS011;26591;43.264;26.940;2023-06-26T11:59:49;12.13;;;4.00;;
40871;SDS011;26591;43.264;26.940;2023-06-26T12:02:16;8.07;;;3.25;;
40871;SDS011;26591;43.264;26.940;2023-06-26T12:04:42;7.90;;;2.90;;
40871;SDS011;26591;43.264;26.940;2023-06-26T12:07:09;5.45;;;2.40;;
40871;SDS011;26591;43.264;26.940;2023-06-26T12:09:46;11.63;;;3.05;;
40871;SDS011;26591;43.264;26.940;2023-06-26T12:12:14;6.47;;;2.50;;
40871;SDS011;26591;43.264;26.940;2023-06-26T12:14:41;3.25;;;2.78;;
40871;SDS011;26591;43.264;26.940;2023-06-26T12:17:10;5.65;;;2.67;;
40871;SDS011;26591;43.264;26.940;2023-06-26T12:19:38;6.55;;;2.80;;
40871;SDS011;26591;43.264;26.940;2023-06-26T12:22:13;5.35;;;2.70;;
40871;SDS011;26591;43.264;26.940;2023-06-26T12:24:39;3.65;;;2.50;;
40871;SDS011;26591;43.264;26.940;2023-06-26T12:27:09;3.40;;;2.33;;
40871;SDS011;26591;43.264;26.940;2023-06-26T12:29:37;8.52;;;3.03;;
40871;SDS011;26591;43.264;26.940;2023-06-26T12:32:07;10.30;;;3.30;;
40871;SDS011;26591;43.264;26.940;2023-06-26T12:34:34;7.13;;;2.78;;
40871;SDS011;26591;43.264;26.940;2023-06-26T12:37:02;6.88;;;2.92;;
40871;SDS011;26591;43.264;26.940;2023-06-26T12:39:48;6.47;;;2.95;;
40871;SDS011;26591;43.264;26.940;2023-06-26T12:42:16;3.03;;;2.25;;
40871;SDS011;26591;43.264;26.940;2023-06-26T12:44:45;2.83;;;2.03;;
40871;SDS011;26591;43.264;26.940;2023-06-26T12:47:10;6.70;;;2.95;;
40871;SDS011;26591;43.264;26.940;2023-06-26T12:49:42;6.80;;;4.47;;
40871;SDS011;26591;43.264;26.940;2023-06-26T12:52:10;5.70;;;4.90;;
40871;SDS011;26591;43.264;26.940;2023-06-26T12:54:40;6.78;;;3.92;;
40871;SDS011;26591;43.264;26.940;2023-06-26T12:57:07;10.55;;;3.17;;
40871;SDS011;26591;43.264;26.940;2023-06-26T12:59:34;3.90;;;2.45;;
40871;SDS011;26591;43.264;26.940;2023-06-26T13:02:01;11.90;;;2.38;;
40871;SDS011;26591;43.264;26.940;2023-06-26T13:04:27;7.47;;;2.97;;
40871;SDS011;26591;43.264;26.940;2023-06-26T13:06:53;7.50;;;2.47;;
40871;SDS011;26591;43.264;26.940;2023-06-26T13:09:21;4.15;;;2.38;;
40871;SDS011;26591;43.264;26.940;2023-06-26T13:11:48;3.83;;;2.70;;
40871;SDS011;26591;43.264;26.940;2023-06-26T13:14:14;14.30;;;3.75;;
40871;SDS011;26591;43.264;26.940;2023-06-26T13:16:40;6.88;;;2.80;;
40871;SDS011;26591;43.264;26.940;2023-06-26T13:19:06;3.45;;;2.55;;
40871;SDS011;26591;43.264;26.940;2023-06-26T13:21:32;7.72;;;2.53;;
40871;SDS011;26591;43.264;26.940;2023-06-26T13:23:58;6.55;;;2.85;;
40871;SDS011;26591;43.264;26.940;2023-06-26T13:26:24;6.70;;;2.85;;
40871;SDS011;26591;43.264;26.940;2023-06-26T13:28:51;4.65;;;2.72;;
40871;SDS011;26591;43.264;26.940;2023-06-26T13:31:17;5.38;;;3.10;;
40871;SDS011;26591;43.264;26.940;2023-06-26T13:33:44;5.60;;;2.50;;
40871;SDS011;26591;43.264;26.940;2023-06-26T13:36:11;4.72;;;2.65;;
40871;SDS011;26591;43.264;26.940;2023-06-26T13:38:37;6.90;;;2.38;;
40871;SDS011;26591;43.264;26.940;2023-06-26T13:41:02;2.90;;;2.58;;
40871;SDS011;26591;43.264;26.940;2023-06-26T13:43:28;4.13;;;2.58;;
40871;SDS011;26591;43.264;26.940;2023-06-26T13:45:54;12.45;;;3.80;;
40871;SDS011;26591;43.264;26.940;2023-06-26T13:48:20;9.63;;;3.25;;
40871;SDS011;26591;43.264;26.940;2023-06-26T13:50:47;9.07;;;3.88;;
40871;SDS011;26591;43.264;26.940;2023-06-26T13:53:13;6.35;;;2.88;;
40871;SDS011;26591;43.264;26.940;2023-06-26T13:55:39;10.73;;;2.90;;
40871;SDS011;26591;43.264;26.940;2023-06-26T13:58:05;13.65;;;2.92;;
40871;SDS011;26591;43.264;26.940;2023-06-26T14:00:32;3.72;;;2.67;;
40871;SDS011;26591;43.264;26.940;2023-06-26T14:02:59;7.05;;;3.30;;
40871;SDS011;26591;43.264;26.940;2023-06-26T14:05:31;5.53;;;3.00;;
40871;SDS011;26591;43.264;26.940;2023-06-26T14:07:58;3.72;;;2.60;;
40871;SDS011;26591;43.264;26.940;2023-06-26T14:10:23;6.88;;;3.13;;
40871;SDS011;26591;43.264;26.940;2023-06-26T14:12:49;4.93;;;2.90;;
40871;SDS011;26591;43.264;26.940;2023-06-26T14:15:15;10.88;;;3.55;;
40871;SDS011;26591;43.264;26.940;2023-06-26T14:17:40;8.73;;;3.42;;
40871;SDS011;26591;43.264;26.940;2023-06-26T14:20:09;8.80;;;2.88;;
40871;SDS011;26591;43.264;26.940;2023-06-26T14:22:38;8.73;;;3.45;;
40871;SDS011;26591;43.264;26.940;2023-06-26T14:25:04;5.22;;;3.30;;
40871;SDS011;26591;43.264;26.940;2023-06-26T14:27:31;11.10;;;4.07;;
40871;SDS011;26591;43.264;26.940;2023-06-26T14:29:56;6.78;;;3.85;;
40871;SDS011;26591;43.264;26.940;2023-06-26T14:32:22;8.43;;;4.05;;
40871;SDS011;26591;43.264;26.940;2023-06-26T14:34:47;5.53;;;3.65;;
40871;SDS011;26591;43.264;26.940;2023-06-26T14:37:12;5.53;;;3.97;;
40871;SDS011;26591;43.264;26.940;2023-06-26T14:39:41;8.15;;;5.00;;
40871;SDS011;26591;43.264;26.940;2023-06-26T14:42:07;7.03;;;3.88;;
40871;SDS011;26591;43.264;26.940;2023-06-26T14:44:32;5.22;;;3.70;;
40871;SDS011;26591;43.264;26.940;2023-06-26T14:46:58;11.23;;;5.20;;